sensor_id;sensor_type;location;lat;lon;timestamp;P1;durP1;ratioP1;P2;durP2;ratioP2
47089;SDS011;32840;52.516;13.294;2023-05-16T00:00:25;9.80;;;8.80;;
47089;SDS011;32840;52.516;13.294;2023-05-16T00:03:10;11.27;;;8.02;;
47089;SDS011;32840;52.516;13.294;2023-05-16T00:05:55;14.63;;;9.02;;
47089;SDS011;32840;52.516;13.294;2023-05-16T00:08:41;12.40;;;9.40;;
47089;SDS011;32840;52.516;13.294;2023-05-16T00:11:26;10.95;;;9.85;;
47089;SDS011;32840;52.516;13.294;2023-05-16T00:14:10;13.00;;;9.05;;
47089;SDS011;32840;52.516;13.294;2023-05-16T00:16:55;12.02;;;8.95;;
47089;SDS011;32840;52.516;13.294;2023-05-16T00:19:44;9.60;;;8.60;;
47089;SDS011;32840;52.516;13.294;2023-05-16T00:22:41;12.93;;;9.02;;
47089;SDS011;32840;52.516;13.294;2023-05-16T00:25:26;11.05;;;8.70;;
47089;SDS011;32840;52.516;13.294;2023-05-16T00:28:12;12.68;;;9.52;;
47089;SDS011;32840;52.516;13.294;2023-05-16T00:30:57;13.65;;;9.80;;
47089;SDS011;32840;52.516;13.294;2023-05-16T00:33:42;11.40;;;10.23;;
47089;SDS011;32840;52.516;13.294;2023-05-16T00:36:27;12.15;;;10.48;;
47089;SDS011;32840;52.516;13.294;2023-05-16T00:39:12;14.95;;;11.25;;
47089;SDS011;32840;52.516;13.294;2023-05-16T00:41:57;11.98;;;10.63;;
47089;SDS011;32840;52.516;13.294;2023-05-16T00:44:42;14.38;;;10.98;;
47089;SDS011;32840;52.516;13.294;2023-05-16T00:47:27;14.65;;;11.07;;
47089;SDS011;32840;52.516;13.294;2023-05-16T00:50:11;15.60;;;12.23;;
47089;SDS011;32840;52.516;13.294;2023-05-16T00:52:56;14.75;;;13.05;;
47089;SDS011;32840;52.516;13.294;2023-05-16T00:55:41;15.75;;;12.52;;
47089;SDS011;32840;52.516;13.294;2023-05-16T00:58:27;18.67;;;12.38;;
47089;SDS011;32840;52.516;13.294;2023-05-16T01:01:14;18.63;;;13.88;;
47089;SDS011;32840;52.516;13.294;2023-05-16T01:03:59;19.60;;;13.93;;
47089;SDS011;32840;52.516;13.294;2023-05-16T01:06:45;16.77;;;13.50;;
47089;SDS011;32840;52.516;13.294;2023-05-16T01:09:29;16.92;;;14.70;;
47089;SDS011;32840;52.516;13.294;2023-05-16T01:12:18;21.10;;;15.68;;
47089;SDS011;32840;52.516;13.294;2023-05-16T01:15:27;16.90;;;14.57;;
47089;SDS011;32840;52.516;13.294;2023-05-16T01:18:34;17.90;;;14.45;;
47089;SDS011;32840;52.516;13.294;2023-05-16T01:24:21;17.20;;;14.50;;
47089;SDS011;32840;52.516;13.294;2023-05-16T01:27:10;21.73;;;14.75;;
47089;SDS011;32840;52.516;13.294;2023-05-16T01:29:56;17.35;;;14.57;;
47089;SDS011;32840;52.516;13.294;2023-05-16T01:32:41;20.55;;;15.30;;
47089;SDS011;32840;52.516;13.294;2023-05-16T01:35:27;19.08;;;15.63;;
47089;SDS011;32840;52.516;13.294;2023-05-16T01:38:15;18.35;;;14.48;;
47089;SDS011;32840;52.516;13.294;2023-05-16T01:41:15;17.00;;;13.27;;
47089;SDS011;32840;52.516;13.294;2023-05-16T01:44:18;18.48;;;13.25;;
47089;SDS011;32840;52.516;13.294;2023-05-16T01:47:15;19.42;;;14.25;;
47089;SDS011;32840;52.516;13.294;2023-05-16T01:50:06;19.77;;;14.35;;
47089;SDS011;32840;52.516;13.294;2023-05-16T01:52:58;16.88;;;13.63;;
47089;SDS011;32840;52.516;13.294;2023-05-16T01:55:52;19.20;;;13.45;;
47089;SDS011;32840;52.516;13.294;2023-05-16T01:58:40;15.30;;;13.15;;
47089;SDS011;32840;52.516;13.294;2023-05-16T02:01:25;15.75;;;12.65;;
47089;SDS011;32840;52.516;13.294;2023-05-16T02:04:10;21.08;;;13.02;;
47089;SDS011;32840;52.516;13.294;2023-05-16T02:06:56;17.85;;;13.02;;
47089;SDS011;32840;52.516;13.294;2023-05-16T02:09:43;18.63;;;12.73;;
47089;SDS011;32840;52.516;13.294;2023-05-16T02:12:28;17.15;;;12.98;;
47089;SDS011;32840;52.516;13.294;2023-05-16T02:15:13;18.10;;;12.88;;
47089;SDS011;32840;52.516;13.294;2023-05-16T02:17:58;17.08;;;13.38;;
47089;SDS011;32840;52.516;13.294;2023-05-16T02:20:43;18.75;;;12.77;;
47089;SDS011;32840;52.516;13.294;2023-05-16T02:23:28;16.88;;;13.05;;
47089;SDS011;32840;52.516;13.294;2023-05-16T02:26:13;21.60;;;13.00;;
47089;SDS011;32840;52.516;13.294;2023-05-16T02:28:58;19.45;;;13.45;;
47089;SDS011;32840;52.516;13.294;2023-05-16T02:31:42;20.83;;;12.82;;
47089;SDS011;32840;52.516;13.294;2023-05-16T02:34:27;19.38;;;13.43;;
47089;SDS011;32840;52.516;13.294;2023-05-16T02:37:12;13.57;;;11.88;;
47089;SDS011;32840;52.516;13.294;2023-05-16T02:39:57;20.77;;;12.65;;
47089;SDS011;32840;52.516;13.294;2023-05-16T02:42:42;16.52;;;13.38;;
47089;SDS011;32840;52.516;13.294;2023-05-16T02:45:27;15.70;;;11.90;;
47089;SDS011;32840;52.516;13.294;2023-05-16T02:48:12;17.40;;;13.20;;
47089;SDS011;32840;52.516;13.294;2023-05-16T02:50:57;16.55;;;13.48;;
47089;SDS011;32840;52.516;13.294;2023-05-16T02:53:42;16.42;;;13.38;;
47089;SDS011;32840;52.516;13.294;2023-05-16T02:56:27;18.88;;;13.45;;
47089;SDS011;32840;52.516;13.294;2023-05-16T02:59:12;19.65;;;13.65;;
47089;SDS011;32840;52.516;13.294;2023-05-16T03:01:56;19.23;;;13.80;;
47089;SDS011;32840;52.516;13.294;2023-05-16T03:04:41;17.25;;;13.10;;
47089;SDS011;32840;52.516;13.294;2023-05-16T03:07:26;18.50;;;14.43;;
47089;SDS011;32840;52.516;13.294;2023-05-16T03:10:11;18.35;;;13.80;;
47089;SDS011;32840;52.516;13.294;2023-05-16T03:12:56;21.27;;;15.77;;
47089;SDS011;32840;52.516;13.294;2023-05-16T03:15:41;21.02;;;14.63;;
47089;SDS011;32840;52.516;13.294;2023-05-16T03:18:26;18.80;;;13.85;;
47089;SDS011;32840;52.516;13.294;2023-05-16T03:21:11;17.40;;;14.35;;
47089;SDS011;32840;52.516;13.294;2023-05-16T03:23:56;20.70;;;15.40;;
47089;SDS011;32840;52.516;13.294;2023-05-16T03:26:41;16.98;;;14.48;;
47089;SDS011;32840;52.516;13.294;2023-05-16T03:29:26;18.50;;;15.82;;
47089;SDS011;32840;52.516;13.294;2023-05-16T03:32:11;18.70;;;14.02;;
47089;SDS011;32840;52.516;13.294;2023-05-16T03:34:56;21.05;;;14.27;;
47089;SDS011;32840;52.516;13.294;2023-05-16T03:37:40;19.15;;;14.57;;
47089;SDS011;32840;52.516;13.294;2023-05-16T03:40:25;21.20;;;15.60;;
47089;SDS011;32840;52.516;13.294;2023-05-16T03:43:10;23.23;;;15.85;;
47089;SDS011;32840;52.516;13.294;2023-05-16T03:45:55;22.15;;;15.77;;
47089;SDS011;32840;52.516;13.294;2023-05-16T03:48:40;20.50;;;16.58;;
47089;SDS011;32840;52.516;13.294;2023-05-16T03:51:25;22.55;;;16.55;;
47089;SDS011;32840;52.516;13.294;2023-05-16T03:54:11;19.08;;;14.90;;
47089;SDS011;32840;52.516;13.294;2023-05-16T03:56:56;21.77;;;17.25;;
47089;SDS011;32840;52.516;13.294;2023-05-16T03:59:40;27.88;;;21.60;;
47089;SDS011;32840;52.516;13.294;2023-05-16T04:02:25;20.35;;;16.67;;
47089;SDS011;32840;52.516;13.294;2023-05-16T04:05:10;24.63;;;17.38;;
47089;SDS011;32840;52.516;13.294;2023-05-16T04:07:56;19.50;;;17.00;;
47089;SDS011;32840;52.516;13.294;2023-05-16T04:10:41;22.00;;;17.52;;
47089;SDS011;32840;52.516;13.294;2023-05-16T04:13:26;23.42;;;17.10;;
47089;SDS011;32840;52.516;13.294;2023-05-16T04:16:11;20.98;;;17.13;;
47089;SDS011;32840;52.516;13.294;2023-05-16T04:18:55;18.50;;;14.80;;
47089;SDS011;32840;52.516;13.294;2023-05-16T04:21:40;19.08;;;14.93;;
47089;SDS011;32840;52.516;13.294;2023-05-16T04:24:25;23.30;;;15.38;;
47089;SDS011;32840;52.516;13.294;2023-05-16T04:27:12;19.48;;;15.20;;
47089;SDS011;32840;52.516;13.294;2023-05-16T04:29:56;25.00;;;17.45;;
47089;SDS011;32840;52.516;13.294;2023-05-16T04:32:43;21.45;;;16.52;;
47089;SDS011;32840;52.516;13.294;2023-05-16T04:35:28;19.65;;;15.85;;
47089;SDS011;32840;52.516;13.294;2023-05-16T04:38:13;22.52;;;16.13;;
47089;SDS011;32840;52.516;13.294;2023-05-16T04:40:58;21.23;;;15.98;;
47089;SDS011;32840;52.516;13.294;2023-05-16T04:43:43;20.10;;;15.85;;
47089;SDS011;32840;52.516;13.294;2023-05-16T04:46:28;29.77;;;23.02;;
47089;SDS011;32840;52.516;13.294;2023-05-16T04:49:13;26.60;;;17.75;;
47089;SDS011;32840;52.516;13.294;2023-05-16T04:51:58;22.85;;;17.17;;
47089;SDS011;32840;52.516;13.294;2023-05-16T04:54:43;22.90;;;17.08;;
47089;SDS011;32840;52.516;13.294;2023-05-16T04:57:28;22.08;;;16.67;;
47089;SDS011;32840;52.516;13.294;2023-05-16T05:00:13;22.65;;;16.92;;
47089;SDS011;32840;52.516;13.294;2023-05-16T05:02:59;23.63;;;17.42;;
47089;SDS011;32840;52.516;13.294;2023-05-16T05:05:46;23.55;;;14.75;;
47089;SDS011;32840;52.516;13.294;2023-05-16T05:08:31;23.13;;;16.13;;
47089;SDS011;32840;52.516;13.294;2023-05-16T05:11:16;27.00;;;15.82;;
47089;SDS011;32840;52.516;13.294;2023-05-16T05:14:01;22.60;;;16.63;;
47089;SDS011;32840;52.516;13.294;2023-05-16T05:16:46;22.80;;;16.70;;
47089;SDS011;32840;52.516;13.294;2023-05-16T05:19:31;23.08;;;16.55;;
47089;SDS011;32840;52.516;13.294;2023-05-16T05:22:16;22.10;;;16.40;;
47089;SDS011;32840;52.516;13.294;2023-05-16T05:25:01;27.73;;;17.73;;
47089;SDS011;32840;52.516;13.294;2023-05-16T05:27:46;22.63;;;16.63;;
47089;SDS011;32840;52.516;13.294;2023-05-16T05:30:31;21.05;;;16.85;;
47089;SDS011;32840;52.516;13.294;2023-05-16T05:33:16;20.88;;;15.77;;
47089;SDS011;32840;52.516;13.294;2023-05-16T05:36:02;21.38;;;15.82;;
47089;SDS011;32840;52.516;13.294;2023-05-16T05:38:47;24.83;;;16.33;;
47089;SDS011;32840;52.516;13.294;2023-05-16T05:41:31;26.02;;;15.93;;
47089;SDS011;32840;52.516;13.294;2023-05-16T05:44:16;21.90;;;15.43;;
47089;SDS011;32840;52.516;13.294;2023-05-16T05:47:01;23.63;;;14.40;;
47089;SDS011;32840;52.516;13.294;2023-05-16T05:49:47;19.65;;;13.55;;
47089;SDS011;32840;52.516;13.294;2023-05-16T05:52:32;18.00;;;14.05;;
47089;SDS011;32840;52.516;13.294;2023-05-16T05:55:17;24.23;;;13.60;;
47089;SDS011;32840;52.516;13.294;2023-05-16T05:58:02;14.02;;;11.40;;
47089;SDS011;32840;52.516;13.294;2023-05-16T06:00:47;17.45;;;13.40;;
47089;SDS011;32840;52.516;13.294;2023-05-16T06:03:32;15.07;;;12.18;;
47089;SDS011;32840;52.516;13.294;2023-05-16T06:06:16;17.02;;;12.02;;
47089;SDS011;32840;52.516;13.294;2023-05-16T06:09:01;15.65;;;11.15;;
47089;SDS011;32840;52.516;13.294;2023-05-16T06:11:46;16.67;;;12.05;;
47089;SDS011;32840;52.516;13.294;2023-05-16T06:14:31;19.35;;;13.20;;
47089;SDS011;32840;52.516;13.294;2023-05-16T06:17:16;16.73;;;12.45;;
47089;SDS011;32840;52.516;13.294;2023-05-16T06:20:01;19.35;;;12.55;;
47089;SDS011;32840;52.516;13.294;2023-05-16T06:22:46;14.38;;;11.10;;
47089;SDS011;32840;52.516;13.294;2023-05-16T06:25:31;17.00;;;12.07;;
47089;SDS011;32840;52.516;13.294;2023-05-16T06:28:16;18.45;;;11.75;;
47089;SDS011;32840;52.516;13.294;2023-05-16T06:31:00;16.60;;;11.15;;
47089;SDS011;32840;52.516;13.294;2023-05-16T06:33:45;17.65;;;10.27;;
47089;SDS011;32840;52.516;13.294;2023-05-16T06:36:30;14.80;;;11.50;;
47089;SDS011;32840;52.516;13.294;2023-05-16T06:39:15;15.25;;;11.25;;
47089;SDS011;32840;52.516;13.294;2023-05-16T06:42:00;15.63;;;8.82;;
47089;SDS011;32840;52.516;13.294;2023-05-16T06:44:45;15.75;;;9.90;;
47089;SDS011;32840;52.516;13.294;2023-05-16T06:47:30;14.48;;;9.43;;
47089;SDS011;32840;52.516;13.294;2023-05-16T06:50:15;12.38;;;8.48;;
47089;SDS011;32840;52.516;13.294;2023-05-16T06:53:00;14.48;;;8.77;;
47089;SDS011;32840;52.516;13.294;2023-05-16T06:55:48;13.02;;;8.50;;
47089;SDS011;32840;52.516;13.294;2023-05-16T06:58:33;16.33;;;9.05;;
47089;SDS011;32840;52.516;13.294;2023-05-16T07:01:18;12.40;;;7.60;;
47089;SDS011;32840;52.516;13.294;2023-05-16T07:04:02;13.47;;;7.47;;
47089;SDS011;32840;52.516;13.294;2023-05-16T07:06:47;13.23;;;7.93;;
47089;SDS011;32840;52.516;13.294;2023-05-16T07:09:32;11.05;;;6.90;;
47089;SDS011;32840;52.516;13.294;2023-05-16T07:12:17;13.40;;;7.30;;
47089;SDS011;32840;52.516;13.294;2023-05-16T07:15:02;12.63;;;6.95;;
47089;SDS011;32840;52.516;13.294;2023-05-16T07:17:48;11.85;;;6.63;;
47089;SDS011;32840;52.516;13.294;2023-05-16T07:20:33;10.48;;;6.47;;
47089;SDS011;32840;52.516;13.294;2023-05-16T07:23:19;10.23;;;6.20;;
47089;SDS011;32840;52.516;13.294;2023-05-16T07:26:04;10.00;;;5.47;;
47089;SDS011;32840;52.516;13.294;2023-05-16T07:28:49;10.55;;;5.90;;
47089;SDS011;32840;52.516;13.294;2023-05-16T07:31:34;11.65;;;6.03;;
47089;SDS011;32840;52.516;13.294;2023-05-16T07:34:18;10.13;;;5.30;;
47089;SDS011;32840;52.516;13.294;2023-05-16T07:37:04;9.05;;;5.40;;
47089;SDS011;32840;52.516;13.294;2023-05-16T07:39:51;8.93;;;5.50;;
47089;SDS011;32840;52.516;13.294;2023-05-16T07:42:35;9.20;;;5.20;;
47089;SDS011;32840;52.516;13.294;2023-05-16T07:45:20;7.85;;;4.95;;
47089;SDS011;32840;52.516;13.294;2023-05-16T07:48:05;8.20;;;5.00;;
47089;SDS011;32840;52.516;13.294;2023-05-16T07:50:50;12.85;;;5.93;;
47089;SDS011;32840;52.516;13.294;2023-05-16T07:53:35;10.98;;;4.57;;
47089;SDS011;32840;52.516;13.294;2023-05-16T07:56:20;10.50;;;4.78;;
47089;SDS011;32840;52.516;13.294;2023-05-16T07:59:05;10.63;;;4.97;;
47089;SDS011;32840;52.516;13.294;2023-05-16T08:01:50;9.25;;;4.47;;
47089;SDS011;32840;52.516;13.294;2023-05-16T08:04:35;7.90;;;4.53;;
47089;SDS011;32840;52.516;13.294;2023-05-16T08:07:21;10.10;;;5.00;;
47089;SDS011;32840;52.516;13.294;2023-05-16T08:10:06;17.88;;;11.95;;
47089;SDS011;32840;52.516;13.294;2023-05-16T08:12:51;10.18;;;5.20;;
47089;SDS011;32840;52.516;13.294;2023-05-16T08:15:37;8.52;;;4.30;;
47089;SDS011;32840;52.516;13.294;2023-05-16T08:18:22;11.00;;;4.20;;
47089;SDS011;32840;52.516;13.294;2023-05-16T08:21:07;7.88;;;4.47;;
47089;SDS011;32840;52.516;13.294;2023-05-16T08:23:52;7.15;;;4.18;;
47089;SDS011;32840;52.516;13.294;2023-05-16T08:26:37;8.98;;;4.63;;
47089;SDS011;32840;52.516;13.294;2023-05-16T08:29:22;6.68;;;4.05;;
47089;SDS011;32840;52.516;13.294;2023-05-16T08:32:07;6.85;;;4.22;;
47089;SDS011;32840;52.516;13.294;2023-05-16T08:34:54;6.63;;;3.60;;
47089;SDS011;32840;52.516;13.294;2023-05-16T08:37:38;6.05;;;3.40;;
47089;SDS011;32840;52.516;13.294;2023-05-16T08:40:24;7.38;;;4.28;;
47089;SDS011;32840;52.516;13.294;2023-05-16T08:43:10;6.28;;;3.25;;
47089;SDS011;32840;52.516;13.294;2023-05-16T08:45:55;7.57;;;3.10;;
47089;SDS011;32840;52.516;13.294;2023-05-16T08:48:40;4.18;;;2.72;;
47089;SDS011;32840;52.516;13.294;2023-05-16T08:51:31;7.97;;;3.10;;
47089;SDS011;32840;52.516;13.294;2023-05-16T08:54:19;12.43;;;3.03;;
47089;SDS011;32840;52.516;13.294;2023-05-16T08:57:05;10.23;;;3.55;;
47089;SDS011;32840;52.516;13.294;2023-05-16T08:59:52;6.72;;;3.47;;
47089;SDS011;32840;52.516;13.294;2023-05-16T09:02:40;6.55;;;2.90;;
47089;SDS011;32840;52.516;13.294;2023-05-16T09:05:28;7.40;;;2.80;;
47089;SDS011;32840;52.516;13.294;2023-05-16T09:08:14;5.13;;;2.67;;
47089;SDS011;32840;52.516;13.294;2023-05-16T09:10:59;8.38;;;3.05;;
47089;SDS011;32840;52.516;13.294;2023-05-16T09:13:48;12.98;;;6.20;;
47089;SDS011;32840;52.516;13.294;2023-05-16T09:16:32;6.68;;;3.72;;
47089;SDS011;32840;52.516;13.294;2023-05-16T09:19:17;8.68;;;4.50;;
47089;SDS011;32840;52.516;13.294;2023-05-16T09:22:02;4.57;;;2.25;;
47089;SDS011;32840;52.516;13.294;2023-05-16T09:24:47;6.57;;;2.90;;
47089;SDS011;32840;52.516;13.294;2023-05-16T09:27:32;6.88;;;2.50;;
47089;SDS011;32840;52.516;13.294;2023-05-16T09:30:20;6.70;;;2.63;;
47089;SDS011;32840;52.516;13.294;2023-05-16T09:33:07;4.60;;;2.00;;
47089;SDS011;32840;52.516;13.294;2023-05-16T09:35:56;6.25;;;2.75;;
47089;SDS011;32840;52.516;13.294;2023-05-16T09:38:45;7.38;;;3.00;;
47089;SDS011;32840;52.516;13.294;2023-05-16T09:41:33;8.57;;;4.15;;
47089;SDS011;32840;52.516;13.294;2023-05-16T09:44:19;7.13;;;2.65;;
47089;SDS011;32840;52.516;13.294;2023-05-16T09:47:05;4.95;;;2.00;;
47089;SDS011;32840;52.516;13.294;2023-05-16T09:49:53;7.63;;;2.05;;
47089;SDS011;32840;52.516;13.294;2023-05-16T09:52:39;7.88;;;2.92;;
47089;SDS011;32840;52.516;13.294;2023-05-16T09:55:25;9.10;;;2.20;;
47089;SDS011;32840;52.516;13.294;2023-05-16T09:58:09;6.80;;;2.20;;
47089;SDS011;32840;52.516;13.294;2023-05-16T10:00:54;7.93;;;2.65;;
47089;SDS011;32840;52.516;13.294;2023-05-16T10:03:41;13.73;;;4.82;;
47089;SDS011;32840;52.516;13.294;2023-05-16T10:06:26;12.60;;;5.72;;
47089;SDS011;32840;52.516;13.294;2023-05-16T10:09:11;26.63;;;12.82;;
47089;SDS011;32840;52.516;13.294;2023-05-16T10:12:01;14.27;;;6.35;;
47089;SDS011;32840;52.516;13.294;2023-05-16T10:14:49;21.05;;;9.10;;
47089;SDS011;32840;52.516;13.294;2023-05-16T10:17:34;18.27;;;7.05;;
47089;SDS011;32840;52.516;13.294;2023-05-16T10:20:22;9.23;;;4.25;;
47089;SDS011;32840;52.516;13.294;2023-05-16T10:23:08;12.02;;;3.72;;
47089;SDS011;32840;52.516;13.294;2023-05-16T10:25:55;11.90;;;3.60;;
47089;SDS011;32840;52.516;13.294;2023-05-16T10:28:41;11.20;;;3.63;;
47089;SDS011;32840;52.516;13.294;2023-05-16T10:31:26;10.70;;;3.10;;
47089;SDS011;32840;52.516;13.294;2023-05-16T10:34:13;16.45;;;6.22;;
47089;SDS011;32840;52.516;13.294;2023-05-16T10:36:59;11.93;;;4.00;;
47089;SDS011;32840;52.516;13.294;2023-05-16T10:39:44;12.20;;;3.63;;
47089;SDS011;32840;52.516;13.294;2023-05-16T10:42:33;10.57;;;3.67;;
47089;SDS011;32840;52.516;13.294;2023-05-16T10:45:18;9.57;;;3.72;;
47089;SDS011;32840;52.516;13.294;2023-05-16T10:48:04;9.90;;;4.18;;
47089;SDS011;32840;52.516;13.294;2023-05-16T10:50:50;7.95;;;3.08;;
47089;SDS011;32840;52.516;13.294;2023-05-16T10:53:36;13.98;;;2.90;;
47089;SDS011;32840;52.516;13.294;2023-05-16T10:56:21;18.10;;;3.33;;
47089;SDS011;32840;52.516;13.294;2023-05-16T10:59:23;9.25;;;3.38;;
47089;SDS011;32840;52.516;13.294;2023-05-16T11:02:28;9.93;;;2.72;;
47089;SDS011;32840;52.516;13.294;2023-05-16T11:05:18;11.73;;;4.95;;
47089;SDS011;32840;52.516;13.294;2023-05-16T11:08:06;9.38;;;2.90;;
47089;SDS011;32840;52.516;13.294;2023-05-16T11:11:23;7.20;;;2.50;;
47089;SDS011;32840;52.516;13.294;2023-05-16T11:17:08;13.43;;;6.25;;
47089;SDS011;32840;52.516;13.294;2023-05-16T11:19:58;11.53;;;3.20;;
47089;SDS011;32840;52.516;13.294;2023-05-16T11:22:42;13.82;;;4.30;;
47089;SDS011;32840;52.516;13.294;2023-05-16T11:25:35;12.30;;;3.83;;
47089;SDS011;32840;52.516;13.294;2023-05-16T11:28:24;14.10;;;6.10;;
47089;SDS011;32840;52.516;13.294;2023-05-16T11:31:10;10.40;;;2.78;;
47089;SDS011;32840;52.516;13.294;2023-05-16T11:33:55;11.85;;;3.10;;
47089;SDS011;32840;52.516;13.294;2023-05-16T11:36:40;9.10;;;2.85;;
47089;SDS011;32840;52.516;13.294;2023-05-16T11:39:25;7.00;;;2.17;;
47089;SDS011;32840;52.516;13.294;2023-05-16T11:42:09;16.00;;;3.28;;
47089;SDS011;32840;52.516;13.294;2023-05-16T11:45:07;10.23;;;2.92;;
47089;SDS011;32840;52.516;13.294;2023-05-16T11:48:00;15.10;;;2.72;;
47089;SDS011;32840;52.516;13.294;2023-05-16T11:50:47;8.65;;;2.08;;
47089;SDS011;32840;52.516;13.294;2023-05-16T11:53:32;14.40;;;3.80;;
47089;SDS011;32840;52.516;13.294;2023-05-16T11:56:18;10.68;;;2.85;;
47089;SDS011;32840;52.516;13.294;2023-05-16T11:59:05;11.75;;;2.72;;
47089;SDS011;32840;52.516;13.294;2023-05-16T12:01:50;9.52;;;2.80;;
47089;SDS011;32840;52.516;13.294;2023-05-16T12:04:35;13.10;;;2.85;;
47089;SDS011;32840;52.516;13.294;2023-05-16T12:07:26;17.55;;;5.45;;
47089;SDS011;32840;52.516;13.294;2023-05-16T12:10:13;8.77;;;2.60;;
47089;SDS011;32840;52.516;13.294;2023-05-16T12:12:59;8.18;;;2.70;;
47089;SDS011;32840;52.516;13.294;2023-05-16T12:15:45;13.02;;;2.65;;
47089;SDS011;32840;52.516;13.294;2023-05-16T12:18:30;10.43;;;2.35;;
47089;SDS011;32840;52.516;13.294;2023-05-16T12:21:16;8.50;;;1.98;;
47089;SDS011;32840;52.516;13.294;2023-05-16T12:24:01;13.95;;;3.55;;
47089;SDS011;32840;52.516;13.294;2023-05-16T12:26:46;14.45;;;3.42;;
47089;SDS011;32840;52.516;13.294;2023-05-16T12:29:31;13.07;;;3.15;;
47089;SDS011;32840;52.516;13.294;2023-05-16T12:32:19;13.35;;;6.10;;
47089;SDS011;32840;52.516;13.294;2023-05-16T12:35:05;11.90;;;2.53;;
47089;SDS011;32840;52.516;13.294;2023-05-16T12:37:50;9.02;;;2.25;;
47089;SDS011;32840;52.516;13.294;2023-05-16T12:40:36;22.67;;;8.93;;
47089;SDS011;32840;52.516;13.294;2023-05-16T12:43:22;9.45;;;2.28;;
47089;SDS011;32840;52.516;13.294;2023-05-16T12:46:08;8.13;;;2.63;;
47089;SDS011;32840;52.516;13.294;2023-05-16T12:49:00;10.32;;;2.67;;
47089;SDS011;32840;52.516;13.294;2023-05-16T12:51:52;7.43;;;2.05;;
47089;SDS011;32840;52.516;13.294;2023-05-16T12:54:38;10.18;;;2.13;;
47089;SDS011;32840;52.516;13.294;2023-05-16T12:57:22;12.38;;;3.05;;
47089;SDS011;32840;52.516;13.294;2023-05-16T13:00:07;9.23;;;2.67;;
47089;SDS011;32840;52.516;13.294;2023-05-16T13:02:55;12.07;;;2.67;;
47089;SDS011;32840;52.516;13.294;2023-05-16T13:05:40;7.82;;;2.10;;
47089;SDS011;32840;52.516;13.294;2023-05-16T13:08:25;9.05;;;2.15;;
47089;SDS011;32840;52.516;13.294;2023-05-16T13:11:12;13.15;;;2.97;;
47089;SDS011;32840;52.516;13.294;2023-05-16T13:13:56;10.60;;;2.08;;
47089;SDS011;32840;52.516;13.294;2023-05-16T13:16:42;9.38;;;2.53;;
47089;SDS011;32840;52.516;13.294;2023-05-16T13:19:28;10.10;;;2.53;;
47089;SDS011;32840;52.516;13.294;2023-05-16T13:22:14;11.25;;;2.15;;
47089;SDS011;32840;52.516;13.294;2023-05-16T13:24:59;9.52;;;2.30;;
47089;SDS011;32840;52.516;13.294;2023-05-16T13:27:44;8.68;;;2.47;;
47089;SDS011;32840;52.516;13.294;2023-05-16T13:30:29;9.38;;;2.10;;
47089;SDS011;32840;52.516;13.294;2023-05-16T13:33:14;9.35;;;2.00;;
47089;SDS011;32840;52.516;13.294;2023-05-16T13:35:59;8.27;;;1.80;;
47089;SDS011;32840;52.516;13.294;2023-05-16T13:38:44;13.60;;;3.65;;
47089;SDS011;32840;52.516;13.294;2023-05-16T13:41:29;18.25;;;7.47;;
47089;SDS011;32840;52.516;13.294;2023-05-16T13:44:14;5.95;;;2.00;;
47089;SDS011;32840;52.516;13.294;2023-05-16T13:46:59;7.07;;;2.03;;
47089;SDS011;32840;52.516;13.294;2023-05-16T13:49:44;6.63;;;1.98;;
47089;SDS011;32840;52.516;13.294;2023-05-16T13:52:29;12.25;;;2.33;;
47089;SDS011;32840;52.516;13.294;2023-05-16T13:55:14;9.60;;;2.03;;
47089;SDS011;32840;52.516;13.294;2023-05-16T13:57:59;11.27;;;1.75;;
47089;SDS011;32840;52.516;13.294;2023-05-16T14:00:44;6.22;;;2.00;;
47089;SDS011;32840;52.516;13.294;2023-05-16T14:03:28;7.55;;;2.30;;
47089;SDS011;32840;52.516;13.294;2023-05-16T14:06:13;8.43;;;1.92;;
47089;SDS011;32840;52.516;13.294;2023-05-16T14:08:58;9.23;;;2.25;;
47089;SDS011;32840;52.516;13.294;2023-05-16T14:11:43;8.73;;;1.35;;
47089;SDS011;32840;52.516;13.294;2023-05-16T14:14:28;8.95;;;2.30;;
47089;SDS011;32840;52.516;13.294;2023-05-16T14:17:13;10.68;;;2.45;;
47089;SDS011;32840;52.516;13.294;2023-05-16T14:19:58;6.88;;;1.45;;
47089;SDS011;32840;52.516;13.294;2023-05-16T14:22:42;16.33;;;1.98;;
47089;SDS011;32840;52.516;13.294;2023-05-16T14:25:27;10.77;;;2.40;;
47089;SDS011;32840;52.516;13.294;2023-05-16T14:28:13;8.95;;;2.10;;
47089;SDS011;32840;52.516;13.294;2023-05-16T14:30:58;13.88;;;2.38;;
47089;SDS011;32840;52.516;13.294;2023-05-16T14:33:43;9.60;;;2.00;;
47089;SDS011;32840;52.516;13.294;2023-05-16T14:36:28;9.82;;;2.50;;
47089;SDS011;32840;52.516;13.294;2023-05-16T14:39:13;46.10;;;33.45;;
47089;SDS011;32840;52.516;13.294;2023-05-16T14:41:58;7.85;;;3.88;;
47089;SDS011;32840;52.516;13.294;2023-05-16T14:44:43;8.48;;;3.30;;
47089;SDS011;32840;52.516;13.294;2023-05-16T14:47:28;13.55;;;4.70;;
47089;SDS011;32840;52.516;13.294;2023-05-16T14:50:14;15.82;;;6.20;;
47089;SDS011;32840;52.516;13.294;2023-05-16T14:52:59;6.47;;;2.28;;
47089;SDS011;32840;52.516;13.294;2023-05-16T14:55:44;8.27;;;3.22;;
47089;SDS011;32840;52.516;13.294;2023-05-16T14:58:29;10.02;;;2.35;;
47089;SDS011;32840;52.516;13.294;2023-05-16T15:01:13;9.70;;;1.85;;
47089;SDS011;32840;52.516;13.294;2023-05-16T15:03:59;6.97;;;2.13;;
47089;SDS011;32840;52.516;13.294;2023-05-16T15:06:44;7.70;;;1.60;;
47089;SDS011;32840;52.516;13.294;2023-05-16T15:09:29;6.25;;;1.83;;
47089;SDS011;32840;52.516;13.294;2023-05-16T15:12:14;8.52;;;2.10;;
47089;SDS011;32840;52.516;13.294;2023-05-16T15:14:59;5.80;;;1.55;;
47089;SDS011;32840;52.516;13.294;2023-05-16T15:17:44;10.63;;;2.10;;
47089;SDS011;32840;52.516;13.294;2023-05-16T15:20:29;10.55;;;1.75;;
47089;SDS011;32840;52.516;13.294;2023-05-16T15:23:14;7.50;;;1.98;;
47089;SDS011;32840;52.516;13.294;2023-05-16T15:25:59;7.05;;;1.42;;
47089;SDS011;32840;52.516;13.294;2023-05-16T15:28:44;6.53;;;1.40;;
47089;SDS011;32840;52.516;13.294;2023-05-16T15:31:29;9.05;;;1.40;;
47089;SDS011;32840;52.516;13.294;2023-05-16T15:34:15;12.25;;;1.70;;
47089;SDS011;32840;52.516;13.294;2023-05-16T15:36:59;13.07;;;6.97;;
47089;SDS011;32840;52.516;13.294;2023-05-16T15:39:44;9.18;;;2.47;;
47089;SDS011;32840;52.516;13.294;2023-05-16T15:42:29;7.22;;;1.63;;
47089;SDS011;32840;52.516;13.294;2023-05-16T15:45:14;10.55;;;3.88;;
47089;SDS011;32840;52.516;13.294;2023-05-16T15:47:59;17.60;;;12.65;;
47089;SDS011;32840;52.516;13.294;2023-05-16T15:50:45;9.07;;;1.88;;
47089;SDS011;32840;52.516;13.294;2023-05-16T15:53:30;6.55;;;1.40;;
47089;SDS011;32840;52.516;13.294;2023-05-16T15:56:15;4.50;;;1.50;;
47089;SDS011;32840;52.516;13.294;2023-05-16T15:59:00;7.65;;;1.63;;
47089;SDS011;32840;52.516;13.294;2023-05-16T16:01:44;4.88;;;1.83;;
47089;SDS011;32840;52.516;13.294;2023-05-16T16:04:30;8.77;;;4.00;;
47089;SDS011;32840;52.516;13.294;2023-05-16T16:07:15;7.45;;;1.90;;
47089;SDS011;32840;52.516;13.294;2023-05-16T16:10:00;9.95;;;4.78;;
47089;SDS011;32840;52.516;13.294;2023-05-16T16:12:56;9.40;;;2.97;;
47089;SDS011;32840;52.516;13.294;2023-05-16T16:15:42;5.28;;;1.02;;